Time;durP1;ratioP1;P1;durP2;ratioP2;P2;SDS_P1;SDS_P2;PMS_P1;PMS_P2;Temp;Humidity;BMP_temperature;BMP_pressure;BME280_temperature;BME280_humidity;BME280_pressure;Samples;Min_cycle;Max_cycle;Signal;HPM_P1;HPM_P2
2023/10/06 00:00:40;;;;;;;3.13;2.93;;;22.80;44.80;;;;;;5002647;28;20453;-59
2023/10/06 00:03:10;;;;;;;3.00;2.80;;;22.80;44.80;;;;;;4996560;28;20907;-59
2023/10/06 00:05:38;;;;;;;3.30;3.00;;;22.80;44.90;;;;;;5000282;28;20504;-57
2023/10/06 00:08:04;;;;;;;3.00;2.80;;;22.80;44.80;;;;;;4998119;28;20868;-58
2023/10/06 00:10:32;;;;;;;2.57;2.37;;;22.80;44.80;;;;;;5000288;28;20881;-60
2023/10/06 00:13:04;;;;;;;3.10;3.00;;;22.80;44.80;;;;;;4995977;28;21133;-57
2023/10/06 00:15:38;;;;;;;2.63;2.43;;;22.80;44.80;;;;;;5009162;28;20514;-59
2023/10/06 00:18:08;;;;;;;2.70;2.50;;;22.80;44.90;;;;;;5003633;28;20456;-60
2023/10/06 00:20:49;;;;;;;2.40;2.30;;;22.80;44.90;;;;;;5003295;28;20496;-57
2023/10/06 00:23:22;;;;;;;2.73;2.53;;;22.80;44.90;;;;;;4997049;28;20957;-58
2023/10/06 00:25:54;;;;;;;2.37;2.27;;;22.80;44.90;;;;;;4998987;28;20467;-57
2023/10/06 00:28:22;;;;;;;2.90;2.70;;;22.70;44.80;;;;;;4995867;28;21036;-59
2023/10/06 00:30:55;;;;;;;2.43;2.23;;;22.80;44.80;;;;;;5012237;28;20455;-60
2023/10/06 00:33:21;;;;;;;2.70;2.50;;;22.80;44.90;;;;;;4997510;28;20452;-58
2023/10/06 00:35:48;;;;;;;3.00;2.80;;;22.80;44.90;;;;;;5006554;28;21179;-57
2023/10/06 00:38:16;;;;;;;2.97;2.77;;;22.80;44.80;;;;;;5014310;28;20219;-59
2023/10/06 00:40:52;;;;;;;2.43;2.33;;;22.80;44.80;;;;;;5012094;28;20475;-56
2023/10/06 00:43:34;;;;;;;2.60;2.40;;;22.80;44.80;;;;;;5014413;28;20868;-60
2023/10/06 00:46:06;;;;;;;2.30;2.20;;;22.80;44.80;;;;;;5015782;28;20456;-59
2023/10/06 00:48:40;;;;;;;2.27;2.10;;;22.70;44.70;;;;;;5015761;28;20453;-58
2023/10/06 00:51:21;;;;;;;2.30;2.13;;;22.80;44.80;;;;;;5016048;28;20804;-57
2023/10/06 00:53:51;;;;;;;2.60;2.50;;;22.70;44.70;;;;;;5000654;28;20491;-59
2023/10/06 00:56:18;;;;;;;2.43;2.23;;;22.80;44.80;;;;;;4994485;28;20458;-57
2023/10/06 00:58:44;;;;;;;2.60;2.40;;;22.70;44.70;;;;;;5010305;28;20465;-59
2023/10/06 01:01:12;;;;;;;2.03;1.93;;;22.70;44.70;;;;;;4997681;28;20462;-58
2023/10/06 01:03:39;;;;;;;2.47;2.27;;;22.70;44.70;;;;;;4995685;28;20933;-63
2023/10/06 01:06:17;;;;;;;1.80;1.70;;;22.70;44.70;;;;;;4994974;28;20500;-57
2023/10/06 01:08:53;;;;;;;2.17;2.00;;;22.70;44.70;;;;;;4997072;28;20817;-58
2023/10/06 01:11:20;;;;;;;2.20;2.10;;;22.70;44.80;;;;;;4996085;28;20452;-57
2023/10/06 01:13:55;;;;;;;2.40;2.00;;;22.70;44.70;;;;;;4995085;28;20933;-58
2023/10/06 01:16:34;;;;;;;2.13;1.93;;;22.70;44.70;;;;;;5013587;28;20451;-56
2023/10/06 01:21:48;;;;;;;2.03;1.93;;;22.70;44.70;;;;;;4994778;28;20468;-59
2023/10/06 01:24:24;;;;;;;2.00;1.90;;;22.70;44.70;;;;;;4996854;28;20490;-56
2023/10/06 01:26:51;;;;;;;2.43;2.33;;;22.70;45.50;;;;;;5002593;28;21424;-59
2023/10/06 01:29:17;;;;;;;2.53;2.33;;;22.70;44.70;;;;;;5001201;28;20548;-58
2023/10/06 01:31:44;;;;;;;2.40;2.30;;;22.70;44.70;;;;;;4998554;28;20552;-56
2023/10/06 01:34:10;;;;;;;2.40;2.30;;;22.70;44.70;;;;;;4996893;28;20285;-57
2023/10/06 01:36:39;;;;;;;2.33;2.13;;;22.70;44.80;;;;;;5006056;28;20512;-57
2023/10/06 01:39:18;;;;;;;2.10;2.00;;;22.70;44.70;;;;;;4997296;28;20549;-58
2023/10/06 01:41:47;;;;;;;1.93;1.80;;;22.70;44.80;;;;;;4994772;28;20469;-58
2023/10/06 01:44:17;;;;;;;1.90;1.80;;;22.70;44.80;;;;;;4995860;28;20544;-57
2023/10/06 01:46:44;;;;;;;1.83;1.73;;;22.70;44.70;;;;;;5010936;28;20467;-57
2023/10/06 01:49:10;;;;;;;1.97;1.77;;;22.70;44.70;;;;;;5006502;28;20827;-57
2023/10/06 01:51:39;;;;;;;1.87;1.77;;;22.70;44.80;;;;;;4998154;28;20588;-57
2023/10/06 01:54:12;;;;;;;2.20;2.00;;;22.70;44.70;;;;;;5014005;28;20509;-58
2023/10/06 01:56:44;;;;;;;2.00;1.90;;;22.70;44.70;;;;;;5007990;28;20453;-58
2023/10/06 01:59:11;;;;;;;2.10;1.90;;;22.70;44.70;;;;;;4999636;28;20456;-58
2023/10/06 02:01:40;;;;;;;1.97;1.87;;;22.70;44.70;;;;;;5013565;28;20453;-58
2023/10/06 02:04:10;;;;;;;1.87;1.77;;;22.70;44.70;;;;;;5003618;28;20450;-59
2023/10/06 02:06:42;;;;;;;2.30;2.17;;;22.70;44.70;;;;;;4994641;28;20456;-58
2023/10/06 02:09:18;;;;;;;1.97;1.87;;;22.70;44.80;;;;;;5005531;28;20993;-57
2023/10/06 02:11:44;;;;;;;1.97;1.73;;;22.70;44.70;;;;;;4996426;28;20515;-57
2023/10/06 02:14:18;;;;;;;1.70;1.60;;;22.70;44.80;;;;;;4995763;28;20446;-59
2023/10/06 02:16:44;;;;;;;2.33;2.13;;;22.70;44.80;;;;;;4999279;28;20463;-57
2023/10/06 02:19:11;;;;;;;1.63;1.53;;;22.70;44.80;;;;;;4992783;28;20456;-58
2023/10/06 02:21:49;;;;;;;2.00;1.90;;;22.70;44.70;;;;;;4994037;28;20461;-58
2023/10/06 02:24:17;;;;;;;1.60;1.50;;;22.70;44.80;;;;;;4994352;28;21076;-57
2023/10/06 02:26:49;;;;;;;1.80;1.70;;;22.70;44.90;;;;;;4993955;28;20456;-59
2023/10/06 02:29:22;;;;;;;1.80;1.70;;;22.70;44.80;;;;;;5000761;28;20451;-56
2023/10/06 02:31:52;;;;;;;2.30;1.73;;;22.70;44.80;;;;;;5014183;28;20456;-57
2023/10/06 02:34:29;;;;;;;2.20;2.10;;;22.70;44.80;;;;;;5014077;28;20527;-58
2023/10/06 02:37:00;;;;;;;1.70;1.60;;;22.70;44.80;;;;;;5011411;28;20450;-58
2023/10/06 02:39:28;;;;;;;1.70;1.60;;;22.70;44.80;;;;;;5010030;28;20455;-58
2023/10/06 02:41:57;;;;;;;1.50;1.40;;;22.70;44.80;;;;;;5003866;28;20486;-61
2023/10/06 02:44:24;;;;;;;2.00;1.90;;;22.70;44.80;;;;;;4997698;28;20465;-57
2023/10/06 02:46:53;;;;;;;2.07;1.73;;;22.70;44.80;;;;;;5014237;28;20484;-59
2023/10/06 02:49:31;;;;;;;2.00;1.90;;;22.70;44.80;;;;;;5004306;28;20535;-58
2023/10/06 02:52:12;;;;;;;1.60;1.50;;;22.70;44.80;;;;;;5013519;28;20444;-57
2023/10/06 02:54:44;;;;;;;1.70;1.60;;;22.70;44.90;;;;;;5012669;28;20456;-57
2023/10/06 02:57:11;;;;;;;1.70;1.60;;;22.70;44.80;;;;;;5014309;28;20891;-57
2023/10/06 02:59:36;;;;;;;1.63;1.53;;;22.70;44.80;;;;;;5012433;28;20936;-58
2023/10/06 03:02:06;;;;;;;1.70;1.60;;;22.70;45.60;;;;;;5014274;28;20449;-59
2023/10/06 03:04:36;;;;;;;1.60;1.50;;;22.70;45.00;;;;;;5010973;28;20698;-57
2023/10/06 03:07:05;;;;;;;1.70;1.60;;;22.70;44.90;;;;;;5000360;28;20806;-60
2023/10/06 03:09:38;;;;;;;2.10;2.00;;;22.70;44.80;;;;;;5008933;28;20815;-59
2023/10/06 03:14:48;;;;;;;1.60;1.50;;;22.70;45.60;;;;;;5011164;28;21019;-59
2023/10/06 03:17:14;;;;;;;1.70;1.60;;;22.70;44.90;;;;;;5009391;28;20461;-59
2023/10/06 03:20:29;;;;;;;1.50;1.40;;;22.70;45.00;;;;;;5013041;28;20234;-59
2023/10/06 03:22:27;;;;;;;1.50;1.40;;;22.70;44.90;;;;;;5002074;28;20223;-59
2023/10/06 03:24:58;;;;;;;1.67;1.57;;;22.70;45.00;;;;;;5016816;28;20471;-58
2023/10/06 03:27:24;;;;;;;1.70;1.60;;;22.70;45.00;;;;;;5017294;28;21562;-58
2023/10/06 03:30:07;;;;;;;1.57;1.47;;;22.70;44.90;;;;;;5002528;28;20458;-59
2023/10/06 03:32:33;;;;;;;1.60;1.50;;;22.70;44.90;;;;;;4998786;28;20464;-57
2023/10/06 03:35:06;;;;;;;1.63;1.50;;;22.70;44.80;;;;;;5006491;28;20452;-61
2023/10/06 03:37:37;;;;;;;1.50;1.40;;;22.70;44.90;;;;;;4998746;28;20227;-57
2023/10/06 03:40:22;;;;;;;1.80;1.70;;;22.70;44.90;;;;;;5002832;28;20445;-60
2023/10/06 03:42:48;;;;;;;1.70;1.60;;;22.70;44.90;;;;;;4996437;28;20449;-59
2023/10/06 03:45:23;;;;;;;1.80;1.70;;;22.70;44.90;;;;;;5012620;28;20451;-57
2023/10/06 03:47:49;;;;;;;1.40;1.30;;;22.70;44.90;;;;;;4997062;28;20368;-58
2023/10/06 03:50:17;;;;;;;1.70;1.60;;;22.70;44.80;;;;;;4997769;28;20965;-57
2023/10/06 03:52:43;;;;;;;2.47;1.63;;;22.70;44.90;;;;;;4997211;28;20223;-56
2023/10/06 03:55:12;;;;;;;1.63;1.53;;;22.70;44.90;;;;;;4995654;28;20852;-58
2023/10/06 03:57:37;;;;;;;3.30;1.30;;;22.70;44.90;;;;;;5006072;28;20223;-58
2023/10/06 04:00:05;;;;;;;1.70;1.60;;;22.70;44.90;;;;;;5015827;28;20450;-58
2023/10/06 04:02:38;;;;;;;1.80;1.70;;;22.70;44.90;;;;;;5015042;28;20568;-58
2023/10/06 04:05:06;;;;;;;1.50;1.40;;;22.70;44.80;;;;;;4997387;28;20538;-58
2023/10/06 04:07:32;;;;;;;1.37;1.27;;;22.70;44.80;;;;;;5000657;28;20991;-58
2023/10/06 04:09:57;;;;;;;1.70;1.60;;;22.70;44.90;;;;;;4996186;28;20452;-58
2023/10/06 04:12:23;;;;;;;1.70;1.60;;;22.70;45.00;;;;;;4997045;28;20289;-59
2023/10/06 04:14:49;;;;;;;1.60;1.50;;;22.70;44.90;;;;;;5001798;28;20597;-57
2023/10/06 04:17:16;;;;;;;1.40;1.30;;;22.70;44.90;;;;;;5004951;28;20220;-59
2023/10/06 04:19:42;;;;;;;1.43;1.33;;;22.70;44.90;;;;;;4995140;28;20484;-58
2023/10/06 04:22:08;;;;;;;1.70;1.60;;;22.70;44.90;;;;;;4994254;28;20449;-58
2023/10/06 04:24:34;;;;;;;1.60;1.50;;;22.70;44.90;;;;;;4997679;28;20691;-57
2023/10/06 04:27:00;;;;;;;1.43;1.33;;;22.70;44.80;;;;;;4995733;28;20449;-60
2023/10/06 04:29:26;;;;;;;1.57;1.47;;;22.70;44.80;;;;;;5000104;28;20467;-60
2023/10/06 04:31:52;;;;;;;1.60;1.50;;;22.70;44.80;;;;;;4997787;28;20461;-57
2023/10/06 04:34:21;;;;;;;1.50;1.40;;;22.70;44.90;;;;;;5006473;28;20239;-57
2023/10/06 04:36:48;;;;;;;1.57;1.40;;;22.70;44.90;;;;;;4992200;28;20224;-58
2023/10/06 04:39:16;;;;;;;1.40;1.30;;;22.70;44.80;;;;;;4996005;28;20547;-58
2023/10/06 04:41:42;;;;;;;1.57;1.47;;;22.70;44.80;;;;;;4993662;28;20469;-58
2023/10/06 04:44:08;;;;;;;1.57;1.47;;;22.70;44.90;;;;;;4993147;28;21054;-57
2023/10/06 04:46:35;;;;;;;1.50;1.40;;;22.70;44.90;;;;;;4997459;28;20616;-57
2023/10/06 04:49:01;;;;;;;1.50;1.40;;;22.70;44.80;;;;;;5006891;28;20230;-58
2023/10/06 04:51:29;;;;;;;1.40;1.30;;;22.70;44.80;;;;;;5012741;28;20498;-58
2023/10/06 04:53:55;;;;;;;1.27;1.17;;;22.70;44.80;;;;;;4998436;28;20232;-61
2023/10/06 04:56:20;;;;;;;1.90;1.70;;;22.70;44.80;;;;;;5004541;28;20472;-57
2023/10/06 04:58:46;;;;;;;1.87;1.70;;;22.70;44.80;;;;;;4995387;28;20220;-58
2023/10/06 05:01:12;;;;;;;1.50;1.40;;;22.70;44.80;;;;;;5003485;28;20223;-59
2023/10/06 05:03:45;;;;;;;1.40;1.30;;;22.70;44.80;;;;;;5016102;28;20227;-58
2023/10/06 05:06:13;;;;;;;1.60;1.50;;;22.70;44.80;;;;;;5015336;28;20453;-58
2023/10/06 05:08:40;;;;;;;1.40;1.30;;;22.70;44.80;;;;;;5016450;28;20480;-57
2023/10/06 05:11:06;;;;;;;1.60;1.50;;;22.70;44.90;;;;;;5016128;28;20456;-58
2023/10/06 05:13:33;;;;;;;1.40;1.30;;;22.70;44.80;;;;;;5014861;28;20454;-59
2023/10/06 05:15:58;;;;;;;1.43;1.33;;;22.70;44.80;;;;;;5012074;28;20314;-57
2023/10/06 05:18:24;;;;;;;1.40;1.30;;;22.70;44.80;;;;;;4996004;28;20536;-57
2023/10/06 05:20:52;;;;;;;1.37;1.27;;;22.70;44.80;;;;;;5001747;28;20683;-64
2023/10/06 05:23:20;;;;;;;2.03;1.40;;;22.70;44.80;;;;;;5010762;28;20239;-57
2023/10/06 05:25:46;;;;;;;1.50;1.40;;;22.70;44.70;;;;;;5007720;28;20454;-57
2023/10/06 05:28:12;;;;;;;1.70;1.60;;;22.70;44.80;;;;;;4995060;28;20495;-60
2023/10/06 05:30:39;;;;;;;1.40;1.30;;;22.70;44.70;;;;;;4995541;28;20456;-60
2023/10/06 05:33:05;;;;;;;1.30;1.20;;;22.70;44.70;;;;;;5012412;28;20499;-61
2023/10/06 05:35:36;;;;;;;1.70;1.37;;;22.70;44.70;;;;;;5017244;28;20444;-59
2023/10/06 05:38:12;;;;;;;1.47;1.37;;;22.70;44.70;;;;;;4996057;28;20457;-58
2023/10/06 05:40:42;;;;;;;1.40;1.30;;;22.70;44.80;;;;;;4999479;28;20553;-62
2023/10/06 05:43:16;;;;;;;1.43;1.33;;;22.70;44.70;;;;;;4996117;28;20449;-59
2023/10/06 05:45:43;;;;;;;1.50;1.40;;;22.70;44.70;;;;;;4998265;28;20463;-57
2023/10/06 05:48:10;;;;;;;1.40;1.30;;;22.70;44.70;;;;;;5010584;28;20488;-59
2023/10/06 05:50:36;;;;;;;1.40;1.30;;;22.70;44.70;;;;;;5002579;28;20446;-61
2023/10/06 05:53:04;;;;;;;1.40;1.30;;;22.70;44.70;;;;;;4998212;28;20858;-61
2023/10/06 05:55:31;;;;;;;1.50;1.40;;;22.70;44.70;;;;;;4993284;28;20219;-58
2023/10/06 05:58:00;;;;;;;1.30;1.20;;;22.70;44.70;;;;;;4996721;28;20456;-59
2023/10/06 06:00:29;;;;;;;1.40;1.30;;;22.70;44.70;;;;;;4994559;28;20457;-60
2023/10/06 06:02:59;;;;;;;1.50;1.40;;;22.70;44.70;;;;;;4995176;28;21160;-57
2023/10/06 06:05:29;;;;;;;1.40;1.30;;;22.70;44.70;;;;;;5002715;28;21012;-57
2023/10/06 06:07:59;;;;;;;1.40;1.30;;;22.70;44.60;;;;;;4994117;28;20472;-58
2023/10/06 06:10:25;;;;;;;1.33;1.23;;;22.70;44.70;;;;;;5015058;28;21005;-57
2023/10/06 06:12:50;;;;;;;1.30;1.20;;;22.70;44.60;;;;;;4996635;28;20497;-58
2023/10/06 06:15:16;;;;;;;1.20;1.10;;;22.70;44.60;;;;;;4994968;28;20477;-58
2023/10/06 06:17:42;;;;;;;1.43;1.33;;;22.70;44.60;;;;;;5014461;28;20252;-60
2023/10/06 06:20:08;;;;;;;1.57;1.47;;;22.70;44.60;;;;;;5015828;28;20496;-57
2023/10/06 06:22:36;;;;;;;1.50;1.40;;;22.70;44.60;;;;;;4998173;28;20275;-59
2023/10/06 06:25:06;;;;;;;1.27;1.17;;;22.70;44.60;;;;;;4994739;28;20968;-58
2023/10/06 06:27:32;;;;;;;1.50;1.40;;;22.70;44.60;;;;;;5006012;28;20468;-57
2023/10/06 06:29:58;;;;;;;1.33;1.23;;;22.70;44.60;;;;;;5013121;28;20437;-59
2023/10/06 06:32:25;;;;;;;1.50;1.40;;;22.70;44.60;;;;;;5014935;28;20680;-59
2023/10/06 06:34:51;;;;;;;1.30;1.20;;;22.70;44.60;;;;;;5007197;28;20489;-59
2023/10/06 06:37:16;;;;;;;1.30;1.20;;;22.70;44.60;;;;;;5004767;28;20525;-57
2023/10/06 06:39:44;;;;;;;1.20;1.10;;;22.70;44.50;;;;;;5013527;28;20306;-56
2023/10/06 06:42:14;;;;;;;1.30;1.20;;;22.70;44.60;;;;;;5001067;28;20251;-58
2023/10/06 06:44:39;;;;;;;1.40;1.30;;;22.70;44.50;;;;;;4995125;28;20576;-59
2023/10/06 06:47:05;;;;;;;1.50;1.40;;;22.70;44.60;;;;;;4999726;28;21023;-57
2023/10/06 06:49:31;;;;;;;1.33;1.23;;;22.70;44.50;;;;;;5005396;28;20239;-58
2023/10/06 06:51:59;;;;;;;1.30;1.20;;;22.70;44.50;;;;;;5013468;28;20223;-58
2023/10/06 06:54:25;;;;;;;1.50;1.40;;;22.70;44.50;;;;;;5013573;28;20251;-57
2023/10/06 06:56:51;;;;;;;1.33;1.23;;;22.70;44.50;;;;;;5008805;28;20558;-60
2023/10/06 06:59:19;;;;;;;1.30;1.20;;;22.70;44.50;;;;;;5002711;28;20511;-57
2023/10/06 07:01:47;;;;;;;1.30;1.20;;;22.70;44.50;;;;;;4998404;28;20215;-57
2023/10/06 07:04:13;;;;;;;1.30;1.20;;;22.70;44.50;;;;;;4999695;28;20949;-59
2023/10/06 07:06:38;;;;;;;1.20;1.10;;;22.70;44.40;;;;;;5006085;28;20452;-57
2023/10/06 07:09:12;;;;;;;1.47;1.30;;;22.70;44.40;;;;;;5000647;28;20853;-58
2023/10/06 07:11:38;;;;;;;1.33;1.23;;;22.70;44.50;;;;;;4997021;28;20215;-57
2023/10/06 07:14:04;;;;;;;1.53;1.43;;;22.70;44.40;;;;;;4997262;28;20446;-60
2023/10/06 07:16:31;;;;;;;1.47;1.30;;;22.70;44.40;;;;;;4997651;28;20445;-57
2023/10/06 07:18:56;;;;;;;1.40;1.30;;;22.70;44.40;;;;;;4997499;28;20459;-60
2023/10/06 07:21:22;;;;;;;1.43;1.33;;;22.70;44.40;;;;;;4998008;28;20969;-57
2023/10/06 07:23:51;;;;;;;1.30;1.20;;;22.70;44.40;;;;;;4997579;28;20582;-58
2023/10/06 07:26:17;;;;;;;1.33;1.23;;;22.70;44.40;;;;;;4995850;28;20227;-58
2023/10/06 07:28:43;;;;;;;1.40;1.30;;;22.70;44.40;;;;;;5004050;28;20499;-56
2023/10/06 07:31:12;;;;;;;1.40;1.30;;;22.70;44.40;;;;;;4998019;28;20216;-59
2023/10/06 07:33:39;;;;;;;1.40;1.30;;;22.70;44.40;;;;;;5001461;28;20242;-56
2023/10/06 07:36:17;;;;;;;1.43;1.10;;;22.70;44.30;;;;;;4995936;28;20445;-58
2023/10/06 07:38:43;;;;;;;1.37;1.27;;;22.70;44.30;;;;;;5016163;28;20452;-57
2023/10/06 07:41:10;;;;;;;1.67;1.57;;;22.70;44.40;;;;;;5011896;28;20507;-59
2023/10/06 07:43:35;;;;;;;1.10;1.00;;;22.70;44.30;;;;;;4998179;28;20456;-57
2023/10/06 07:46:07;;;;;;;1.33;1.23;;;22.70;44.30;;;;;;4998179;28;20969;-59
2023/10/06 07:48:36;;;;;;;1.30;1.20;;;22.70;44.30;;;;;;5006102;28;20314;-61
2023/10/06 07:51:08;;;;;;;1.50;1.40;;;22.70;44.30;;;;;;4995360;28;20965;-57
2023/10/06 07:53:38;;;;;;;1.30;1.20;;;22.70;44.30;;;;;;5001181;28;20587;-58
2023/10/06 07:56:08;;;;;;;1.40;1.30;;;22.70;44.30;;;;;;5010629;28;20536;-58
2023/10/06 07:58:38;;;;;;;1.23;1.13;;;22.70;44.30;;;;;;5011358;28;20456;-57
2023/10/06 08:01:08;;;;;;;1.27;1.17;;;22.70;44.30;;;;;;5015431;28;20460;-60
2023/10/06 08:03:41;;;;;;;1.37;1.27;;;22.70;44.30;;;;;;5011795;28;20518;-57
2023/10/06 08:06:07;;;;;;;1.43;1.33;;;22.70;44.30;;;;;;5000249;28;20499;-58
2023/10/06 08:08:34;;;;;;;2.13;1.20;;;22.70;44.30;;;;;;5002593;28;20506;-60
2023/10/06 08:11:09;;;;;;;1.43;1.33;;;22.70;44.30;;;;;;5010260;28;20499;-58
2023/10/06 08:13:36;;;;;;;1.37;1.27;;;22.70;44.30;;;;;;4999110;28;20457;-58
2023/10/06 08:16:02;;;;;;;1.50;1.40;;;22.70;44.30;;;;;;5006480;28;21006;-60
2023/10/06 08:18:29;;;;;;;2.00;1.90;;;22.70;44.30;;;;;;5007808;28;20449;-61
2023/10/06 08:21:02;;;;;;;1.20;1.07;;;22.70;44.20;;;;;;4997083;28;20531;-57
2023/10/06 08:23:32;;;;;;;1.20;1.10;;;22.70;44.30;;;;;;5004687;28;20457;-57
2023/10/06 08:25:58;;;;;;;1.30;1.20;;;22.70;44.20;;;;;;5016300;28;20500;-58
2023/10/06 08:28:26;;;;;;;1.37;1.27;;;22.70;44.30;;;;;;5001652;28;20461;-59
2023/10/06 08:30:54;;;;;;;1.20;1.10;;;22.70;44.20;;;;;;4994819;28;20461;-58
2023/10/06 08:33:20;;;;;;;1.30;1.20;;;22.70;44.20;;;;;;4995109;28;20449;-58
2023/10/06 08:35:45;;;;;;;1.37;1.27;;;22.70;44.20;;;;;;5000904;28;20959;-60
2023/10/06 08:38:11;;;;;;;1.50;1.40;;;22.70;44.20;;;;;;5002420;28;20235;-57
2023/10/06 08:40:41;;;;;;;1.50;1.40;;;22.70;44.10;;;;;;4995968;28;20246;-59
2023/10/06 08:43:08;;;;;;;1.10;1.10;;;22.70;44.10;;;;;;4998966;28;20231;-57
2023/10/06 08:45:42;;;;;;;1.23;1.13;;;22.70;44.10;;;;;;4996457;28;20548;-58
2023/10/06 08:48:12;;;;;;;1.47;1.37;;;22.70;44.10;;;;;;5008147;28;20887;-63
2023/10/06 08:50:40;;;;;;;1.17;1.07;;;22.70;44.10;;;;;;5015499;28;20955;-57
2023/10/06 08:53:09;;;;;;;1.37;1.27;;;22.70;44.90;;;;;;5012590;28;20453;-57
2023/10/06 08:55:37;;;;;;;1.30;1.20;;;22.70;44.20;;;;;;4998835;28;20537;-58
2023/10/06 08:58:04;;;;;;;1.60;1.30;;;22.70;44.00;;;;;;5006528;28;20428;-58
2023/10/06 09:00:31;;;;;;;1.40;1.30;;;22.70;44.10;;;;;;4993399;28;20480;-60
2023/10/06 09:03:07;;;;;;;1.20;1.10;;;22.70;44.00;;;;;;4991455;28;20461;-58
2023/10/06 09:05:35;;;;;;;1.73;1.20;;;22.70;44.00;;;;;;5001790;28;20468;-58
2023/10/06 09:08:07;;;;;;;1.30;1.20;;;22.70;44.00;;;;;;4996541;28;20535;-57
2023/10/06 09:10:37;;;;;;;1.20;1.10;;;22.70;44.00;;;;;;4997096;28;20574;-58
2023/10/06 09:13:06;;;;;;;1.30;1.20;;;22.70;44.00;;;;;;5005210;28;20584;-58
2023/10/06 09:15:35;;;;;;;1.43;1.33;;;22.80;44.00;;;;;;4995452;28;20479;-59
2023/10/06 09:18:02;;;;;;;1.73;1.40;;;22.70;44.00;;;;;;5006924;28;20542;-57
2023/10/06 09:20:29;;;;;;;1.10;1.00;;;22.80;44.00;;;;;;5010982;28;20976;-57
2023/10/06 09:22:55;;;;;;;1.40;1.30;;;22.70;44.00;;;;;;5013668;28;20512;-59
2023/10/06 09:25:21;;;;;;;1.30;1.20;;;22.80;44.00;;;;;;5000254;28;20453;-59
2023/10/06 09:27:48;;;;;;;2.33;1.30;;;22.80;44.00;;;;;;5000515;28;20524;-58
2023/10/06 09:30:20;;;;;;;1.30;1.20;;;22.80;44.00;;;;;;4998069;28;20267;-58
2023/10/06 09:32:46;;;;;;;1.10;1.00;;;22.80;43.90;;;;;;4993499;28;20457;-57
2023/10/06 09:35:22;;;;;;;1.20;1.10;;;22.80;44.00;;;;;;5003999;28;20889;-57
2023/10/06 09:37:49;;;;;;;1.40;1.30;;;22.80;43.90;;;;;;5002562;28;20456;-59
2023/10/06 09:40:20;;;;;;;1.73;1.63;;;22.80;43.90;;;;;;4998036;28;20448;-58
2023/10/06 09:42:48;;;;;;;1.60;1.50;;;22.80;43.90;;;;;;4994448;28;20484;-59
2023/10/06 09:45:24;;;;;;;1.30;1.20;;;22.80;43.90;;;;;;4999749;28;20457;-57
2023/10/06 09:47:54;;;;;;;1.40;1.10;;;22.80;43.80;;;;;;4991379;28;21120;-59
2023/10/06 09:50:21;;;;;;;1.30;1.20;;;22.80;43.80;;;;;;5002412;28;20448;-57
2023/10/06 09:52:50;;;;;;;1.40;1.30;;;22.80;43.80;;;;;;5011326;28;20454;-60
2023/10/06 09:55:19;;;;;;;1.27;1.17;;;22.80;43.80;;;;;;5015429;28;20452;-59
2023/10/06 09:57:47;;;;;;;1.20;1.10;;;22.80;43.80;;;;;;4995069;28;20457;-57
2023/10/06 10:00:18;;;;;;;1.30;1.20;;;22.80;43.70;;;;;;5005957;28;20532;-60
2023/10/06 10:02:48;;;;;;;1.43;1.33;;;22.80;43.70;;;;;;4995641;28;20464;-57
2023/10/06 10:05:18;;;;;;;1.50;1.40;;;22.80;43.70;;;;;;5014427;28;20468;-58
2023/10/06 10:07:45;;;;;;;1.57;1.47;;;22.80;43.70;;;;;;4993692;28;20505;-57
2023/10/06 10:10:11;;;;;;;1.80;1.07;;;22.80;43.60;;;;;;5012236;28;20463;-59
2023/10/06 10:12:59;;;;;;;1.77;1.50;;;22.80;43.70;;;;;;5010343;28;20484;-57
2023/10/06 10:15:44;;;;;;;1.33;1.23;;;22.80;43.50;;;;;;4996103;28;20635;-60
2023/10/06 10:18:25;;;;;;;1.30;1.20;;;22.80;43.60;;;;;;4994466;28;20442;-58
2023/10/06 10:20:52;;;;;;;1.30;1.20;;;22.80;43.60;;;;;;4992958;28;20469;-60
2023/10/06 10:23:18;;;;;;;1.40;1.30;;;22.80;43.60;;;;;;5003436;28;20448;-58
2023/10/06 10:25:45;;;;;;;1.20;1.10;;;22.80;43.50;;;;;;4994233;28;20476;-57
2023/10/06 10:28:17;;;;;;;1.30;1.20;;;22.80;43.60;;;;;;4993604;28;20352;-58
2023/10/06 10:30:53;;;;;;;1.30;1.20;;;22.80;43.60;;;;;;5015747;28;20498;-57
2023/10/06 10:33:34;;;;;;;1.30;1.20;;;22.80;43.60;;;;;;4994044;28;20455;-58
2023/10/06 10:36:16;;;;;;;1.33;1.23;;;22.80;43.60;;;;;;5012232;28;20451;-58
2023/10/06 10:38:42;;;;;;;1.57;1.47;;;22.80;43.50;;;;;;5007992;28;20464;-57
2023/10/06 10:41:10;;;;;;;1.83;1.30;;;22.80;43.50;;;;;;4999253;28;20472;-58
2023/10/06 10:43:37;;;;;;;1.00;1.00;;;22.80;43.50;;;;;;4994263;28;20224;-57
2023/10/06 10:46:04;;;;;;;1.20;1.10;;;22.80;43.40;;;;;;4995016;28;21586;-59
2023/10/06 10:48:37;;;;;;;1.30;1.20;;;22.80;43.40;;;;;;4995224;28;20469;-57
2023/10/06 10:51:12;;;;;;;1.60;1.20;;;22.80;43.30;;;;;;4993895;28;20981;-57
2023/10/06 10:53:43;;;;;;;1.40;1.30;;;22.80;43.30;;;;;;4996600;28;20440;-57
2023/10/06 10:56:13;;;;;;;1.50;1.40;;;22.80;43.30;;;;;;4998151;28;20460;-57
2023/10/06 10:58:42;;;;;;;1.47;1.37;;;22.80;43.30;;;;;;4992801;28;20445;-57
2023/10/06 11:01:23;;;;;;;1.67;1.20;;;22.80;43.30;;;;;;4993685;28;20440;-59
2023/10/06 11:04:30;;;;;;;1.40;1.30;;;22.80;43.20;;;;;;4992176;28;20450;-59
2023/10/06 11:07:10;;;;;;;3.10;1.13;;;22.80;43.20;;;;;;4992657;28;20453;-58
2023/10/06 11:09:46;;;;;;;1.40;1.30;;;22.80;43.20;;;;;;5002880;28;20483;-58
2023/10/06 11:12:25;;;;;;;1.20;1.10;;;22.80;43.30;;;;;;5012902;28;20445;-60
2023/10/06 11:14:53;;;;;;;1.40;1.30;;;22.80;43.30;;;;;;5006970;28;20496;-59
2023/10/06 11:17:20;;;;;;;1.30;1.20;;;22.80;43.20;;;;;;5001270;28;20464;-59
2023/10/06 11:19:46;;;;;;;1.30;1.20;;;22.80;43.20;;;;;;4993256;28;20822;-59
2023/10/06 11:22:14;;;;;;;1.77;1.30;;;22.80;43.20;;;;;;4992697;28;20456;-62
2023/10/06 11:24:40;;;;;;;1.50;1.40;;;22.80;43.10;;;;;;5005156;28;20444;-57
2023/10/06 11:27:23;;;;;;;1.37;1.27;;;22.80;43.10;;;;;;5012061;28;20467;-60
2023/10/06 11:29:54;;;;;;;1.50;1.40;;;22.80;43.10;;;;;;4993725;28;20547;-58
2023/10/06 11:32:21;;;;;;;1.20;1.10;;;22.80;43.10;;;;;;4998195;28;20508;-60
2023/10/06 11:34:51;;;;;;;1.50;1.20;;;22.80;43.10;;;;;;4992832;28;20457;-58
2023/10/06 11:37:18;;;;;;;1.23;1.13;;;22.80;43.10;;;;;;4998304;28;20543;-59
2023/10/06 11:39:45;;;;;;;1.40;1.27;;;22.80;43.10;;;;;;5000699;28;20979;-59
2023/10/06 11:42:23;;;;;;;1.20;1.10;;;22.80;43.10;;;;;;5010924;28;20483;-57
2023/10/06 11:44:52;;;;;;;1.37;1.27;;;22.80;43.10;;;;;;4998579;28;20460;-58
2023/10/06 11:47:27;;;;;;;3.63;1.80;;;22.80;43.10;;;;;;5013174;28;20451;-57
2023/10/06 11:49:57;;;;;;;1.60;1.50;;;22.80;43.10;;;;;;5018991;28;20464;-59
2023/10/06 11:52:23;;;;;;;1.30;1.20;;;22.80;43.10;;;;;;5009370;28;20448;-58
2023/10/06 11:54:49;;;;;;;1.30;1.20;;;22.80;43.10;;;;;;5011782;28;20460;-57
2023/10/06 11:57:15;;;;;;;1.50;1.40;;;22.80;43.10;;;;;;5009637;28;20467;-57
2023/10/06 11:59:51;;;;;;;1.53;1.43;;;22.80;43.10;;;;;;4997053;28;20247;-59
2023/10/06 12:02:17;;;;;;;1.40;1.20;;;22.80;43.10;;;;;;4996920;28;20440;-59
2023/10/06 12:04:43;;;;;;;1.40;1.30;;;22.80;43.10;;;;;;4995086;28;20461;-56
2023/10/06 12:07:24;;;;;;;1.43;1.33;;;22.80;43.10;;;;;;4997082;28;20440;-56
2023/10/06 12:09:50;;;;;;;1.40;1.30;;;22.80;43.00;;;;;;4996466;28;20452;-59
2023/10/06 12:12:17;;;;;;;1.27;1.17;;;22.80;43.00;;;;;;5010412;28;20450;-59
2023/10/06 12:14:47;;;;;;;1.40;1.20;;;22.80;43.00;;;;;;5000252;28;20606;-56
2023/10/06 12:17:14;;;;;;;1.30;1.20;;;22.80;42.90;;;;;;5001489;28;21002;-59
2023/10/06 12:19:42;;;;;;;1.40;1.30;;;22.80;43.00;;;;;;5001194;28;20461;-58
2023/10/06 12:22:08;;;;;;;1.47;1.27;;;22.80;42.90;;;;;;5000007;28;20445;-59
2023/10/06 12:24:34;;;;;;;1.60;1.50;;;22.80;43.70;;;;;;5015892;28;20513;-58
2023/10/06 12:26:59;;;;;;;1.23;1.13;;;22.80;43.00;;;;;;5017219;28;20445;-59
2023/10/06 12:29:25;;;;;;;1.60;1.50;;;22.80;42.90;;;;;;4997028;28;20833;-57
2023/10/06 12:31:50;;;;;;;1.40;1.30;;;22.80;42.90;;;;;;5001359;28;20327;-60
2023/10/06 12:34:16;;;;;;;1.50;1.40;;;22.80;43.00;;;;;;4999746;28;20250;-56
2023/10/06 12:36:47;;;;;;;1.47;1.27;;;22.80;42.90;;;;;;4996460;28;20223;-61
2023/10/06 12:39:16;;;;;;;1.57;1.47;;;22.80;42.90;;;;;;4995409;28;20306;-58
2023/10/06 12:41:46;;;;;;;1.70;1.60;;;22.80;42.90;;;;;;4996578;28;20547;-57
2023/10/06 12:44:13;;;;;;;1.50;1.40;;;22.80;43.00;;;;;;5000062;28;20512;-58
2023/10/06 12:46:38;;;;;;;1.57;1.47;;;22.80;43.00;;;;;;5005588;28;21013;-58
2023/10/06 12:49:06;;;;;;;1.57;1.47;;;22.80;43.00;;;;;;4995184;28;20472;-59
2023/10/06 12:51:32;;;;;;;1.30;1.20;;;22.80;43.00;;;;;;4999976;28;20224;-57
2023/10/06 12:54:00;;;;;;;1.40;1.30;;;22.80;43.00;;;;;;4997224;28;20462;-57
2023/10/06 12:56:28;;;;;;;1.40;1.30;;;22.80;43.00;;;;;;5000056;28;20457;-57
2023/10/06 12:58:54;;;;;;;1.20;1.10;;;22.80;43.10;;;;;;5002837;28;20471;-59
2023/10/06 13:01:19;;;;;;;1.50;1.40;;;22.80;43.00;;;;;;4996676;28;20444;-57
2023/10/06 13:03:45;;;;;;;1.40;1.30;;;22.80;43.10;;;;;;4994223;28;20761;-57